Time;durP1;ratioP1;P1;durP2;ratioP2;P2;SDS_P1;SDS_P2;PMS_P1;PMS_P2;Temp;Humidity;BMP_temperature;BMP_pressure;BME280_temperature;BME280_humidity;BME280_pressure;Samples;Min_cycle;Max_cycle;Signal;HPM_P1;HPM_P2
2021/12/29 00:02:37;;;;;;;2.53;0.73;;;;;;;;;;8275490;28;20069;-83
2021/12/29 00:06:37;;;;;;;3.10;0.80;;;;;;;;;;8272469;28;20408;-82
2021/12/29 00:10:37;;;;;;;4.68;0.98;;;;;;;;;;8277459;28;20033;-82
2021/12/29 00:14:37;;;;;;;3.28;0.98;;;;;;;;;;8274477;28;20030;-82
2021/12/29 00:18:37;;;;;;;3.80;0.80;;;;;;;;;;8272139;28;20075;-82
2021/12/29 00:22:38;;;;;;;1.33;0.70;;;;;;;;;;8273232;28;20040;-82
2021/12/29 00:26:38;;;;;;;2.97;1.02;;;;;;;;;;8269579;28;20477;-82
2021/12/29 00:30:38;;;;;;;2.80;1.00;;;;;;;;;;8272307;28;20066;-83
2021/12/29 00:34:38;;;;;;;1.42;0.70;;;;;;;;;;8265765;28;20149;-82
2021/12/29 00:38:38;;;;;;;2.50;0.85;;;;;;;;;;8270679;28;20033;-83
2021/12/29 00:42:39;;;;;;;4.38;1.02;;;;;;;;;;8274087;28;20032;-82
2021/12/29 00:46:40;;;;;;;6.47;1.20;;;;;;;;;;8281396;28;20046;-83
2021/12/29 00:50:40;;;;;;;3.35;0.93;;;;;;;;;;8270716;28;20030;-83
2021/12/29 00:54:41;;;;;;;1.60;0.80;;;;;;;;;;8282596;28;20038;-82
2021/12/29 00:58:41;;;;;;;3.25;1.00;;;;;;;;;;8270042;28;20041;-81
2021/12/29 01:02:42;;;;;;;1.92;1.00;;;;;;;;;;8272749;28;21013;-83
2021/12/29 01:06:42;;;;;;;3.10;1.02;;;;;;;;;;8272288;28;20037;-83
2021/12/29 01:10:43;;;;;;;3.33;0.95;;;;;;;;;;8271202;28;20025;-83
2021/12/29 01:14:52;;;;;;;3.95;0.90;;;;;;;;;;8272206;28;20153;-82
2021/12/29 01:18:52;;;;;;;2.88;0.90;;;;;;;;;;8271804;28;20046;-82
2021/12/29 01:22:52;;;;;;;1.88;0.73;;;;;;;;;;8268039;28;20030;-83
2021/12/29 01:26:53;;;;;;;3.50;0.95;;;;;;;;;;8281189;28;20036;-83
2021/12/29 01:30:54;;;;;;;5.55;1.08;;;;;;;;;;8267639;28;20041;-82
2021/12/29 01:34:54;;;;;;;2.50;1.10;;;;;;;;;;8267465;28;20033;-81
2021/12/29 01:38:54;;;;;;;1.10;0.75;;;;;;;;;;8270778;28;20140;-82
2021/12/29 01:42:55;;;;;;;2.10;0.90;;;;;;;;;;8264083;28;20029;-82
2021/12/29 01:46:56;;;;;;;3.55;0.90;;;;;;;;;;8269329;28;20300;-83
2021/12/29 01:50:57;;;;;;;5.03;1.10;;;;;;;;;;8280371;28;20132;-82
2021/12/29 01:54:57;;;;;;;3.83;0.80;;;;;;;;;;8269838;28;20476;-82
2021/12/29 01:58:58;;;;;;;2.85;0.95;;;;;;;;;;8270385;28;20490;-83
2021/12/29 02:02:58;;;;;;;2.57;0.80;;;;;;;;;;8261487;28;20049;-82
2021/12/29 02:06:58;;;;;;;2.27;0.80;;;;;;;;;;8270997;28;20280;-82
2021/12/29 02:11:00;;;;;;;3.47;1.00;;;;;;;;;;8270228;28;20737;-82
2021/12/29 02:15:00;;;;;;;2.08;0.73;;;;;;;;;;8268276;28;20057;-82
2021/12/29 02:19:04;;;;;;;3.40;1.00;;;;;;;;;;8266961;28;20073;-82
2021/12/29 02:23:15;;;;;;;3.22;0.90;;;;;;;;;;8268894;28;20090;-82
2021/12/29 02:27:16;;;;;;;3.08;0.90;;;;;;;;;;8269758;28;20075;-82
2021/12/29 02:31:16;;;;;;;1.63;0.80;;;;;;;;;;8270219;28;20034;-82
2021/12/29 02:35:17;;;;;;;3.10;1.00;;;;;;;;;;8261645;28;20036;-82
2021/12/29 02:39:18;;;;;;;3.60;1.02;;;;;;;;;;8280174;28;20060;-83
2021/12/29 02:43:21;;;;;;;1.90;0.70;;;;;;;;;;8269087;28;20030;-82
2021/12/29 02:47:21;;;;;;;2.10;0.70;;;;;;;;;;8269443;28;20439;-82
2021/12/29 02:51:21;;;;;;;1.08;0.75;;;;;;;;;;8270215;28;20026;-82
2021/12/29 02:55:22;;;;;;;1.27;0.87;;;;;;;;;;8267463;28;20335;-82
2021/12/29 02:59:23;;;;;;;1.80;0.90;;;;;;;;;;8275442;28;20375;-82
2021/12/29 03:03:24;;;;;;;3.42;1.00;;;;;;;;;;8276985;28;20052;-83
2021/12/29 03:07:25;;;;;;;2.22;0.80;;;;;;;;;;8275225;28;20102;-82
2021/12/29 03:11:25;;;;;;;3.22;0.82;;;;;;;;;;8274376;28;20829;-82
2021/12/29 03:15:25;;;;;;;1.52;0.88;;;;;;;;;;8272715;28;20042;-82
2021/12/29 03:19:25;;;;;;;2.17;0.90;;;;;;;;;;8275497;28;20025;-82
2021/12/29 03:23:25;;;;;;;3.30;1.10;;;;;;;;;;8275898;28;20127;-82
2021/12/29 03:27:26;;;;;;;5.77;1.10;;;;;;;;;;8273916;28;20041;-82
2021/12/29 03:31:27;;;;;;;2.45;0.98;;;;;;;;;;8277136;28;20331;-82
2021/12/29 03:35:27;;;;;;;1.63;0.93;;;;;;;;;;8272055;28;20375;-82
2021/12/29 03:39:27;;;;;;;0.93;0.70;;;;;;;;;;8276107;28;20036;-83
2021/12/29 03:43:28;;;;;;;2.33;0.82;;;;;;;;;;8274100;28;20603;-83
2021/12/29 03:47:28;;;;;;;2.53;0.90;;;;;;;;;;8283546;28;20778;-83
2021/12/29 03:51:28;;;;;;;5.32;1.00;;;;;;;;;;8272309;28;20709;-82
2021/12/29 03:55:29;;;;;;;2.28;0.95;;;;;;;;;;8274387;28;20884;-83
2021/12/29 03:59:29;;;;;;;2.13;0.82;;;;;;;;;;8272793;28;20030;-83
2021/12/29 04:03:30;;;;;;;2.63;1.00;;;;;;;;;;8283514;28;20037;-83
2021/12/29 04:07:31;;;;;;;3.85;0.80;;;;;;;;;;8272984;28;20029;-82
2021/12/29 04:11:31;;;;;;;3.00;1.10;;;;;;;;;;8273517;28;20124;-82
2021/12/29 04:15:33;;;;;;;1.95;0.70;;;;;;;;;;8273248;28;20072;-82
2021/12/29 04:20:54;;;;;;;3.30;1.00;;;;;;;;;;8275396;28;20034;-83
2021/12/29 04:24:00;;;;;;;2.75;1.00;;;;;;;;;;8273584;28;20116;-83
2021/12/29 04:28:01;;;;;;;2.50;0.82;;;;;;;;;;8274532;28;20057;-83
2021/12/29 04:32:01;;;;;;;2.97;0.77;;;;;;;;;;8272384;28;20132;-83
2021/12/29 04:36:02;;;;;;;2.95;0.70;;;;;;;;;;8273712;28;20030;-83
2021/12/29 04:40:03;;;;;;;2.17;0.68;;;;;;;;;;8274524;28;20425;-82
2021/12/29 04:44:04;;;;;;;1.33;0.68;;;;;;;;;;8273319;28;20486;-83
2021/12/29 04:48:11;;;;;;;2.50;0.90;;;;;;;;;;8272128;28;20444;-83
2021/12/29 04:52:13;;;;;;;3.38;1.10;;;;;;;;;;8275587;28;20030;-83
2021/12/29 04:56:15;;;;;;;4.10;1.13;;;;;;;;;;8271542;28;20030;-82
2021/12/29 05:00:16;;;;;;;4.95;1.05;;;;;;;;;;8264979;28;20961;-83
2021/12/29 05:04:30;;;;;;;1.65;0.90;;;;;;;;;;8273692;28;20022;-82
2021/12/29 05:08:32;;;;;;;2.15;1.10;;;;;;;;;;8271849;28;20441;-83
2021/12/29 05:12:32;;;;;;;1.30;0.85;;;;;;;;;;8282219;28;20144;-82
2021/12/29 05:16:32;;;;;;;4.63;1.20;;;;;;;;;;8272340;28;20044;-82
2021/12/29 05:20:32;;;;;;;2.15;1.10;;;;;;;;;;8270565;28;20033;-83
2021/12/29 05:24:33;;;;;;;5.10;2.05;;;;;;;;;;8271142;28;20026;-82
2021/12/29 05:28:33;;;;;;;4.18;1.15;;;;;;;;;;8272089;28;20763;-83
2021/12/29 05:32:33;;;;;;;2.35;1.08;;;;;;;;;;8271638;28;20045;-82
2021/12/29 05:36:34;;;;;;;3.97;1.05;;;;;;;;;;8274337;28;20099;-83
2021/12/29 05:40:34;;;;;;;2.47;1.08;;;;;;;;;;8270909;28;20038;-82
2021/12/29 05:44:34;;;;;;;3.20;1.08;;;;;;;;;;8264790;28;20033;-82
2021/12/29 05:48:34;;;;;;;3.60;1.05;;;;;;;;;;8263360;28;20488;-82
2021/12/29 05:52:35;;;;;;;4.35;1.20;;;;;;;;;;8280469;28;20068;-82
2021/12/29 05:56:37;;;;;;;8.33;1.47;;;;;;;;;;8271807;28;20124;-82
2021/12/29 06:00:38;;;;;;;3.08;1.23;;;;;;;;;;8270982;28;20302;-82
2021/12/29 06:04:38;;;;;;;2.92;1.17;;;;;;;;;;8270326;28;20483;-83
2021/12/29 06:08:38;;;;;;;3.65;1.10;;;;;;;;;;8261754;28;20112;-82
2021/12/29 06:12:39;;;;;;;6.50;1.35;;;;;;;;;;8269688;28;20257;-83
2021/12/29 06:16:39;;;;;;;5.55;1.30;;;;;;;;;;8270709;28;20156;-82
2021/12/29 06:20:39;;;;;;;3.22;1.20;;;;;;;;;;8269066;28;20045;-83
2021/12/29 06:24:42;;;;;;;6.47;1.40;;;;;;;;;;8268896;28;20564;-83
2021/12/29 06:28:44;;;;;;;4.57;1.20;;;;;;;;;;8279849;28;20045;-83
2021/12/29 06:32:44;;;;;;;7.28;1.92;;;;;;;;;;8276886;28;20069;-82
2021/12/29 06:36:44;;;;;;;5.63;1.75;;;;;;;;;;8289318;28;20498;-82
2021/12/29 06:40:44;;;;;;;8.27;1.50;;;;;;;;;;8280168;28;20072;-82
2021/12/29 06:44:46;;;;;;;5.25;1.40;;;;;;;;;;8278064;28;20457;-82
2021/12/29 06:48:46;;;;;;;3.83;1.15;;;;;;;;;;8279872;28;20045;-83
2021/12/29 06:52:46;;;;;;;6.28;1.70;;;;;;;;;;8276107;28;20029;-83
2021/12/29 06:56:46;;;;;;;7.73;1.53;;;;;;;;;;8279309;28;20021;-83
2021/12/29 07:00:47;;;;;;;4.60;1.40;;;;;;;;;;8279635;28;20280;-83
2021/12/29 07:04:47;;;;;;;5.40;1.33;;;;;;;;;;8278552;28;20030;-83
2021/12/29 07:08:47;;;;;;;5.15;1.35;;;;;;;;;;8280161;28;20551;-83
2021/12/29 07:12:48;;;;;;;4.70;1.33;;;;;;;;;;8281197;28;20052;-83
2021/12/29 07:16:49;;;;;;;3.85;1.63;;;;;;;;;;8294922;28;20049;-83
2021/12/29 07:20:50;;;;;;;3.38;1.30;;;;;;;;;;8296123;28;20029;-83
2021/12/29 07:24:50;;;;;;;8.45;1.60;;;;;;;;;;8282663;28;20037;-83
2021/12/29 07:28:51;;;;;;;3.40;1.63;;;;;;;;;;8279967;28;20030;-81
2021/12/29 07:32:51;;;;;;;7.78;1.40;;;;;;;;;;8288946;28;20276;-79
2021/12/29 07:36:51;;;;;;;9.70;1.33;;;;;;;;;;8287841;28;20026;-80
2021/12/29 07:40:52;;;;;;;7.88;1.58;;;;;;;;;;8291304;28;20036;-80
2021/12/29 07:44:52;;;;;;;7.45;1.73;;;;;;;;;;8299542;28;20080;-79
2021/12/29 07:48:52;;;;;;;6.50;1.80;;;;;;;;;;8286149;28;20037;-79
2021/12/29 07:52:52;;;;;;;6.00;1.27;;;;;;;;;;8281607;28;20029;-79
2021/12/29 07:56:52;;;;;;;5.65;1.23;;;;;;;;;;8282370;28;20119;-79
2021/12/29 08:00:52;;;;;;;3.95;1.35;;;;;;;;;;8279428;28;20049;-80
2021/12/29 08:04:54;;;;;;;4.55;1.20;;;;;;;;;;8280979;28;20061;-80
2021/12/29 08:08:55;;;;;;;4.45;1.02;;;;;;;;;;8284559;28;20105;-80
2021/12/29 08:12:55;;;;;;;4.43;1.40;;;;;;;;;;8285367;28;20672;-79
2021/12/29 08:16:55;;;;;;;6.40;1.50;;;;;;;;;;8274400;28;20048;-79
2021/12/29 08:20:55;;;;;;;3.60;1.10;;;;;;;;;;8280860;28;20029;-80
2021/12/29 08:24:56;;;;;;;4.20;1.10;;;;;;;;;;8281268;28;20452;-79
2021/12/29 08:28:58;;;;;;;3.33;1.40;;;;;;;;;;8279818;28;20353;-77
2021/12/29 08:32:58;;;;;;;4.72;1.17;;;;;;;;;;8275659;28;20285;-77
2021/12/29 08:36:58;;;;;;;4.28;1.27;;;;;;;;;;8276008;28;20025;-77
2021/12/29 08:40:58;;;;;;;3.35;1.52;;;;;;;;;;8278692;28;20085;-77
2021/12/29 08:44:59;;;;;;;6.53;1.20;;;;;;;;;;8272788;28;20594;-76
2021/12/29 08:49:00;;;;;;;4.32;1.30;;;;;;;;;;8277222;28;20297;-76
2021/12/29 08:53:02;;;;;;;5.90;1.33;;;;;;;;;;8281526;28;20049;-76
2021/12/29 08:57:03;;;;;;;4.75;1.38;;;;;;;;;;8275607;28;21102;-78
2021/12/29 09:01:04;;;;;;;5.55;1.55;;;;;;;;;;8274785;28;21097;-76
2021/12/29 09:05:04;;;;;;;5.10;1.50;;;;;;;;;;8275992;28;20021;-76
2021/12/29 09:09:05;;;;;;;5.10;1.23;;;;;;;;;;8293393;28;20068;-77
2021/12/29 09:13:05;;;;;;;3.30;1.35;;;;;;;;;;8273799;28;20013;-76
2021/12/29 09:17:05;;;;;;;3.78;1.30;;;;;;;;;;8274276;28;20041;-76
2021/12/29 09:21:10;;;;;;;3.70;1.17;;;;;;;;;;8286458;28;21019;-76
2021/12/29 09:25:11;;;;;;;9.40;1.42;;;;;;;;;;8276156;28;20093;-76
2021/12/29 09:29:11;;;;;;;5.10;1.80;;;;;;;;;;8273321;28;20030;-76
2021/12/29 09:33:12;;;;;;;6.43;1.60;;;;;;;;;;8272208;28;20289;-76
2021/12/29 09:37:12;;;;;;;3.53;1.38;;;;;;;;;;8273062;28;20028;-76
2021/12/29 09:41:14;;;;;;;7.32;1.45;;;;;;;;;;8274552;28;20037;-76
2021/12/29 09:45:14;;;;;;;4.05;1.48;;;;;;;;;;8273167;28;20045;-77
2021/12/29 09:49:16;;;;;;;7.13;1.60;;;;;;;;;;8283487;28;20021;-76
2021/12/29 09:53:16;;;;;;;6.78;1.58;;;;;;;;;;8265749;28;20331;-76
2021/12/29 09:57:16;;;;;;;4.60;1.60;;;;;;;;;;8272981;28;20025;-76
2021/12/29 10:01:18;;;;;;;3.17;1.30;;;;;;;;;;8277237;28;20268;-76
2021/12/29 10:05:19;;;;;;;7.25;1.70;;;;;;;;;;8276034;28;20284;-76
2021/12/29 10:09:19;;;;;;;5.85;1.85;;;;;;;;;;8276292;28;20030;-76
2021/12/29 10:13:19;;;;;;;5.50;1.90;;;;;;;;;;8275025;28;20021;-76
2021/12/29 10:17:24;;;;;;;7.75;2.25;;;;;;;;;;8290344;28;20111;-76
2021/12/29 10:21:27;;;;;;;7.53;1.73;;;;;;;;;;8291852;28;20131;-76
2021/12/29 10:25:31;;;;;;;4.93;1.50;;;;;;;;;;8275874;28;20420;-76
2021/12/29 10:29:31;;;;;;;5.65;1.58;;;;;;;;;;8276788;28;20036;-76
2021/12/29 10:33:37;;;;;;;6.47;1.40;;;;;;;;;;8276694;28;20067;-76
2021/12/29 10:37:37;;;;;;;5.10;1.35;;;;;;;;;;8279270;28;20056;-77
2021/12/29 10:41:49;;;;;;;3.17;1.20;;;;;;;;;;8280130;28;20037;-76
2021/12/29 10:45:52;;;;;;;6.90;1.80;;;;;;;;;;8279082;28;20045;-76
2021/12/29 10:49:52;;;;;;;8.68;1.90;;;;;;;;;;8282323;28;20030;-76
2021/12/29 10:53:52;;;;;;;4.78;1.67;;;;;;;;;;8278743;28;20257;-77
2021/12/29 10:58:09;;;;;;;5.47;1.50;;;;;;;;;;8281805;28;20809;-75
2021/12/29 11:02:10;;;;;;;3.97;1.80;;;;;;;;;;8275969;28;20327;-75
2021/12/29 11:06:12;;;;;;;3.35;1.33;;;;;;;;;;8278949;28;20850;-75
2021/12/29 11:10:14;;;;;;;4.75;1.50;;;;;;;;;;8268991;28;20032;-76
2021/12/29 11:14:14;;;;;;;5.78;1.45;;;;;;;;;;8278907;28;20030;-76
2021/12/29 11:18:14;;;;;;;3.53;1.53;;;;;;;;;;8277599;28;20061;-78
2021/12/29 11:22:16;;;;;;;4.03;1.48;;;;;;;;;;8280847;28;20272;-76
2021/12/29 11:26:26;;;;;;;5.38;1.85;;;;;;;;;;8276272;28;20025;-76
2021/12/29 11:30:26;;;;;;;6.10;1.60;;;;;;;;;;8277205;28;20053;-75
2021/12/29 11:34:28;;;;;;;6.07;1.95;;;;;;;;;;8274748;28;20040;-75
2021/12/29 11:38:28;;;;;;;2.60;1.70;;;;;;;;;;8274645;28;20192;-76
2021/12/29 11:42:28;;;;;;;4.53;1.45;;;;;;;;;;8267764;28;20065;-77
2021/12/29 11:46:29;;;;;;;4.82;1.73;;;;;;;;;;8278864;28;20068;-75
2021/12/29 11:50:31;;;;;;;5.13;2.00;;;;;;;;;;8282126;28;20477;-76
2021/12/29 11:54:53;;;;;;;4.80;1.85;;;;;;;;;;8280785;28;21059;-75
2021/12/29 11:59:02;;;;;;;3.58;1.85;;;;;;;;;;8275109;28;20041;-76
2021/12/29 12:03:10;;;;;;;3.88;1.85;;;;;;;;;;8279526;28;20037;-76
2021/12/29 12:07:12;;;;;;;2.40;1.50;;;;;;;;;;8289369;28;20044;-75
2021/12/29 12:11:25;;;;;;;4.53;1.30;;;;;;;;;;8273870;28;20033;-75
2021/12/29 12:15:36;;;;;;;2.97;1.65;;;;;;;;;;8280674;28;20034;-78
2021/12/29 12:19:37;;;;;;;3.65;1.35;;;;;;;;;;8282027;28;20076;-75
2021/12/29 12:23:40;;;;;;;1.33;1.00;;;;;;;;;;8278257;28;20018;-76
2021/12/29 12:27:41;;;;;;;1.38;1.17;;;;;;;;;;8278994;28;20061;-75
2021/12/29 12:31:46;;;;;;;1.67;1.20;;;;;;;;;;8279666;28;20953;-77
2021/12/29 12:35:48;;;;;;;1.55;1.20;;;;;;;;;;8280985;28;20076;-75
2021/12/29 12:39:59;;;;;;;2.08;1.33;;;;;;;;;;8278476;28;20030;-76
2021/12/29 12:44:00;;;;;;;1.73;1.25;;;;;;;;;;8281758;28;20506;-76
2021/12/29 12:48:04;;;;;;;2.05;1.13;;;;;;;;;;8279015;28;20473;-75
2021/12/29 12:52:06;;;;;;;2.35;1.20;;;;;;;;;;8279756;28;20153;-76
2021/12/29 12:56:06;;;;;;;2.88;1.17;;;;;;;;;;8280546;28;20029;-76
2021/12/29 13:00:07;;;;;;;1.85;1.30;;;;;;;;;;8277667;28;20358;-76
2021/12/29 13:04:08;;;;;;;1.42;1.20;;;;;;;;;;8275871;28;20099;-75
2021/12/29 13:08:10;;;;;;;3.72;1.42;;;;;;;;;;8272540;28;20486;-76
2021/12/29 13:12:11;;;;;;;1.35;1.23;;;;;;;;;;8271562;28;20752;-76
2021/12/29 13:16:14;;;;;;;3.40;1.48;;;;;;;;;;8284035;28;20474;-76
2021/12/29 13:20:15;;;;;;;2.10;1.20;;;;;;;;;;8263092;28;20391;-76
2021/12/29 13:24:15;;;;;;;1.90;1.50;;;;;;;;;;8278936;28;20042;-75
2021/12/29 13:28:16;;;;;;;2.53;1.33;;;;;;;;;;8270772;28;20029;-76
2021/12/29 13:32:17;;;;;;;3.47;1.50;;;;;;;;;;8274947;28;20790;-76
2021/12/29 13:36:18;;;;;;;2.40;1.35;;;;;;;;;;8274062;28;20053;-77
2021/12/29 13:40:25;;;;;;;8.75;1.90;;;;;;;;;;8277177;28;20022;-77
2021/12/29 13:44:28;;;;;;;4.88;1.58;;;;;;;;;;8274611;28;20045;-76
2021/12/29 13:48:34;;;;;;;3.35;1.85;;;;;;;;;;8266586;28;20103;-77
2021/12/29 13:52:35;;;;;;;2.92;1.52;;;;;;;;;;8277322;28;20042;-76
2021/12/29 13:56:36;;;;;;;4.90;2.20;;;;;;;;;;8288686;28;20080;-76
2021/12/29 14:00:37;;;;;;;4.65;1.73;;;;;;;;;;8277346;28;20273;-76
2021/12/29 14:04:40;;;;;;;7.00;1.98;;;;;;;;;;8274393;28;20107;-75
2021/12/29 14:08:41;;;;;;;3.78;1.85;;;;;;;;;;8294999;28;20080;-75
2021/12/29 14:12:41;;;;;;;3.25;2.00;;;;;;;;;;8275030;28;20057;-76
2021/12/29 14:16:46;;;;;;;7.25;2.42;;;;;;;;;;8272274;28;20046;-77
2021/12/29 14:20:51;;;;;;;5.38;1.80;;;;;;;;;;8275227;28;20037;-76
2021/12/29 14:24:51;;;;;;;2.65;1.55;;;;;;;;;;8276253;28;20018;-77
2021/12/29 14:28:56;;;;;;;4.60;1.80;;;;;;;;;;8275773;28;20041;-76
2021/12/29 14:33:01;;;;;;;5.40;1.60;;;;;;;;;;8276854;28;20050;-76
2021/12/29 14:37:06;;;;;;;4.18;1.75;;;;;;;;;;8277380;28;20471;-77
2021/12/29 14:41:17;;;;;;;3.45;2.10;;;;;;;;;;8280677;28;20035;-78
2021/12/29 14:45:17;;;;;;;3.05;1.85;;;;;;;;;;8275837;28;20036;-77
2021/12/29 14:49:24;;;;;;;3.45;2.05;;;;;;;;;;8280451;28;20030;-76
2021/12/29 14:53:25;;;;;;;3.65;1.58;;;;;;;;;;8271024;28;20022;-76
2021/12/29 14:57:30;;;;;;;3.03;1.80;;;;;;;;;;8277064;28;20041;-76
2021/12/29 15:01:31;;;;;;;1.40;0.95;;;;;;;;;;8281815;28;20204;-76
2021/12/29 15:05:36;;;;;;;1.23;1.00;;;;;;;;;;8280071;28;20025;-77
2021/12/29 15:09:36;;;;;;;11.27;8.00;;;;;;;;;;8280732;28;20030;-77
2021/12/29 15:13:37;;;;;;;10.88;7.65;;;;;;;;;;8279584;28;20048;-76
2021/12/29 15:17:37;;;;;;;6.25;4.00;;;;;;;;;;8276320;28;20033;-76
2021/12/29 15:21:37;;;;;;;3.65;2.20;;;;;;;;;;8280652;28;20056;-76
2021/12/29 15:25:38;;;;;;;3.13;1.45;;;;;;;;;;8279997;28;20056;-76
2021/12/29 15:29:38;;;;;;;3.77;1.60;;;;;;;;;;8279488;28;20056;-77
2021/12/29 15:33:38;;;;;;;2.05;1.30;;;;;;;;;;8276689;28;20288;-77
2021/12/29 15:37:39;;;;;;;4.90;1.42;;;;;;;;;;8280280;28;20034;-77
2021/12/29 15:41:39;;;;;;;6.50;3.60;;;;;;;;;;8280293;28;20406;-76
2021/12/29 15:45:40;;;;;;;4.70;2.10;;;;;;;;;;8277261;28;20049;-77
2021/12/29 15:49:40;;;;;;;5.25;2.20;;;;;;;;;;8277994;28;20108;-77
2021/12/29 15:53:40;;;;;;;2.45;1.50;;;;;;;;;;8276423;28;20038;-76
2021/12/29 15:57:42;;;;;;;2.20;1.23;;;;;;;;;;8278553;28;20029;-76
2021/12/29 16:01:42;;;;;;;3.35;1.67;;;;;;;;;;8275395;28;20380;-76
2021/12/29 16:05:42;;;;;;;1.87;1.30;;;;;;;;;;8273555;28;20022;-77
2021/12/29 16:09:45;;;;;;;2.97;1.30;;;;;;;;;;8277213;28;20323;-76
2021/12/29 16:13:45;;;;;;;1.90;1.27;;;;;;;;;;8277762;28;20129;-77
2021/12/29 16:17:46;;;;;;;5.32;2.10;;;;;;;;;;8287393;28;20045;-77
2021/12/29 16:21:46;;;;;;;2.47;1.30;;;;;;;;;;8285902;28;21244;-75
2021/12/29 16:25:46;;;;;;;1.33;1.00;;;;;;;;;;8275064;28;20145;-76
2021/12/29 16:29:46;;;;;;;1.75;1.60;;;;;;;;;;8271957;28;20281;-77
2021/12/29 16:33:47;;;;;;;4.05;3.13;;;;;;;;;;8272676;28;20049;-72
2021/12/29 16:37:48;;;;;;;5.23;3.20;;;;;;;;;;8273389;28;20499;-77
2021/12/29 16:41:48;;;;;;;1.65;0.90;;;;;;;;;;8271996;28;20289;-76
2021/12/29 16:45:50;;;;;;;1.58;1.42;;;;;;;;;;8271623;28;20049;-76
2021/12/29 16:49:50;;;;;;;1.17;0.80;;;;;;;;;;8271130;28;20076;-75
2021/12/29 16:53:53;;;;;;;0.50;0.50;;;;;;;;;;8273570;28;20021;-76
2021/12/29 16:57:53;;;;;;;0.68;0.68;;;;;;;;;;8272653;28;20996;-75
2021/12/29 17:01:55;;;;;;;2.67;1.10;;;;;;;;;;8269548;28;20380;-76
2021/12/29 17:05:55;;;;;;;0.80;0.80;;;;;;;;;;8272108;28;20264;-75
2021/12/29 17:09:55;;;;;;;0.40;0.40;;;;;;;;;;8270232;28;20030;-77
2021/12/29 17:13:55;;;;;;;0.50;0.50;;;;;;;;;;8268286;28;20125;-76
2021/12/29 17:17:56;;;;;;;1.50;0.50;;;;;;;;;;8267253;28;20049;-76
2021/12/29 17:21:56;;;;;;;0.32;0.32;;;;;;;;;;8269159;28;20267;-77
2021/12/29 17:25:57;;;;;;;0.38;0.38;;;;;;;;;;8268632;28;20079;-77
2021/12/29 17:29:58;;;;;;;0.50;0.50;;;;;;;;;;8268539;28;20037;-77
2021/12/29 17:33:59;;;;;;;0.50;0.50;;;;;;;;;;8267762;28;20060;-76
2021/12/29 17:38:00;;;;;;;1.40;0.50;;;;;;;;;;8269543;28;20035;-76
2021/12/29 17:42:00;;;;;;;0.40;0.40;;;;;;;;;;8271070;28;20058;-76
2021/12/29 17:46:00;;;;;;;0.60;0.60;;;;;;;;;;8269096;28;20046;-77
2021/12/29 17:50:01;;;;;;;0.82;0.80;;;;;;;;;;8269317;28;20040;-77
2021/12/29 17:54:01;;;;;;;0.82;0.70;;;;;;;;;;8267398;28;20026;-76
2021/12/29 17:58:05;;;;;;;0.68;0.68;;;;;;;;;;8268535;28;20033;-76
2021/12/29 18:02:05;;;;;;;;;;;;;;;;;;8269856;28;20049;-76
2021/12/29 18:06:07;;;;;;;0.82;0.82;;;;;;;;;;8272647;28;19979;-76
2021/12/29 18:10:09;;;;;;;0.70;0.70;;;;;;;;;;8268884;28;20017;-76
2021/12/29 18:14:09;;;;;;;0.57;0.57;;;;;;;;;;8268858;28;21041;-76
2021/12/29 18:18:09;;;;;;;0.90;0.90;;;;;;;;;;8266912;28;20133;-77
2021/12/29 18:22:09;;;;;;;0.68;0.68;;;;;;;;;;8269601;28;20087;-76
2021/12/29 18:26:10;;;;;;;0.70;0.70;;;;;;;;;;8267684;28;20032;-77
2021/12/29 18:30:10;;;;;;;0.70;0.70;;;;;;;;;;8278990;28;20026;-76
2021/12/29 18:34:10;;;;;;;0.82;0.82;;;;;;;;;;8268680;28;20048;-76
2021/12/29 18:38:11;;;;;;;0.80;0.80;;;;;;;;;;8270074;28;20021;-75
2021/12/29 18:42:11;;;;;;;0.70;0.70;;;;;;;;;;8269790;28;20280;-77
2021/12/29 18:46:11;;;;;;;1.27;0.70;;;;;;;;;;8269616;28;20060;-75
2021/12/29 18:50:13;;;;;;;0.60;0.60;;;;;;;;;;8269173;28;20087;-75
2021/12/29 18:54:14;;;;;;;0.63;0.63;;;;;;;;;;8260419;28;20108;-76
2021/12/29 18:58:14;;;;;;;0.85;0.80;;;;;;;;;;8266865;28;20902;-75
2021/12/29 19:02:14;;;;;;;2.45;0.85;;;;;;;;;;8265607;28;20751;-75
2021/12/29 19:06:14;;;;;;;0.90;0.90;;;;;;;;;;8268480;28;20355;-75
2021/12/29 19:10:15;;;;;;;0.80;0.80;;;;;;;;;;8270538;28;20111;-76
2021/12/29 19:14:16;;;;;;;0.80;0.80;;;;;;;;;;8269442;28;20429;-76
2021/12/29 19:18:17;;;;;;;0.90;0.90;;;;;;;;;;8270948;28;20145;-75
2021/12/29 19:22:18;;;;;;;0.80;0.80;;;;;;;;;;8270599;28;20021;-76
2021/12/29 19:26:18;;;;;;;0.73;0.73;;;;;;;;;;8267388;28;20094;-75
2021/12/29 19:30:18;;;;;;;0.70;0.70;;;;;;;;;;8268775;28;20203;-75
2021/12/29 19:34:18;;;;;;;1.15;1.00;;;;;;;;;;8267812;28;20655;-75
2021/12/29 19:38:23;;;;;;;1.08;0.93;;;;;;;;;;8270163;28;20060;-75
2021/12/29 19:42:23;;;;;;;2.05;0.98;;;;;;;;;;8274933;28;20022;-76
2021/12/29 19:46:24;;;;;;;0.90;0.90;;;;;;;;;;8272905;28;20161;-76
2021/12/29 19:50:27;;;;;;;1.70;1.00;;;;;;;;;;8275444;28;20029;-75
2021/12/29 19:54:28;;;;;;;1.00;1.00;;;;;;;;;;8273614;28;20018;-76
2021/12/29 19:58:28;;;;;;;0.98;0.90;;;;;;;;;;8273318;28;20026;-75
2021/12/29 20:02:33;;;;;;;0.90;0.90;;;;;;;;;;8287882;28;20042;-75
2021/12/29 20:06:33;;;;;;;1.25;1.17;;;;;;;;;;8273636;28;20817;-75
2021/12/29 20:10:33;;;;;;;1.40;0.93;;;;;;;;;;8273062;28;20907;-74
2021/12/29 20:14:35;;;;;;;1.25;1.15;;;;;;;;;;8274259;28;20041;-75
2021/12/29 20:18:36;;;;;;;0.80;0.80;;;;;;;;;;8271968;28;20414;-75
2021/12/29 20:22:36;;;;;;;1.23;0.95;;;;;;;;;;8272682;28;20854;-75
2021/12/29 20:26:38;;;;;;;1.15;1.00;;;;;;;;;;8272586;28;20506;-75
2021/12/29 20:30:39;;;;;;;0.85;0.85;;;;;;;;;;8272459;28;20053;-76
2021/12/29 20:34:39;;;;;;;1.20;1.10;;;;;;;;;;8272807;28;20034;-76
2021/12/29 20:38:40;;;;;;;1.20;1.05;;;;;;;;;;8272944;28;20057;-76
2021/12/29 20:42:40;;;;;;;1.20;1.20;;;;;;;;;;8270735;28;20026;-74
2021/12/29 20:46:40;;;;;;;1.15;1.15;;;;;;;;;;8272668;28;20033;-75
2021/12/29 20:50:41;;;;;;;7.28;1.25;;;;;;;;;;8271769;28;20034;-75
2021/12/29 20:54:42;;;;;;;1.10;1.10;;;;;;;;;;8273130;28;20061;-75
2021/12/29 20:58:42;;;;;;;1.67;1.20;;;;;;;;;;8270995;28;20030;-75
2021/12/29 21:02:42;;;;;;;1.27;1.10;;;;;;;;;;8267912;28;20068;-74
2021/12/29 21:06:43;;;;;;;1.30;1.20;;;;;;;;;;8272428;28;20483;-78
2021/12/29 21:10:43;;;;;;;1.40;1.30;;;;;;;;;;8272716;28;20037;-79
2021/12/29 21:14:43;;;;;;;3.80;1.00;;;;;;;;;;8262068;28;20586;-79
2021/12/29 21:18:44;;;;;;;1.33;0.90;;;;;;;;;;8269123;28;20038;-80
2021/12/29 21:22:44;;;;;;;1.08;0.90;;;;;;;;;;8268752;28;20029;-80
2021/12/29 21:26:44;;;;;;;1.25;1.00;;;;;;;;;;8269581;28;20034;-79
2021/12/29 21:30:44;;;;;;;1.33;0.93;;;;;;;;;;8268780;28;20081;-79
2021/12/29 21:34:46;;;;;;;0.85;0.85;;;;;;;;;;8268184;28;20119;-79
2021/12/29 21:38:47;;;;;;;1.77;0.90;;;;;;;;;;8267762;28;20168;-79
2021/12/29 21:42:47;;;;;;;1.52;0.80;;;;;;;;;;8270066;28;20030;-80
2021/12/29 21:46:48;;;;;;;0.93;0.82;;;;;;;;;;8268320;28;20133;-80
2021/12/29 21:50:49;;;;;;;0.75;0.60;;;;;;;;;;8271642;28;20934;-79
2021/12/29 21:54:49;;;;;;;1.23;0.70;;;;;;;;;;8281779;28;20458;-79
2021/12/29 21:58:49;;;;;;;0.60;0.55;;;;;;;;;;8279401;28;20098;-80
2021/12/29 22:02:50;;;;;;;0.95;0.60;;;;;;;;;;8261268;28;20804;-79
2021/12/29 22:06:50;;;;;;;2.75;0.60;;;;;;;;;;8268252;28;20542;-80
2021/12/29 22:10:51;;;;;;;1.27;0.60;;;;;;;;;;8269517;28;20048;-79
2021/12/29 22:14:52;;;;;;;2.25;0.57;;;;;;;;;;8285407;28;20287;-81
2021/12/29 22:18:52;;;;;;;0.85;0.60;;;;;;;;;;8284085;28;20603;-79
2021/12/29 22:22:53;;;;;;;0.73;0.50;;;;;;;;;;8268267;28;20037;-79
2021/12/29 22:26:53;;;;;;;0.60;0.60;;;;;;;;;;8268238;28;20046;-79
2021/12/29 22:30:55;;;;;;;0.60;0.60;;;;;;;;;;8270000;28;20034;-79
2021/12/29 22:34:55;;;;;;;0.50;0.50;;;;;;;;;;8269245;28;20347;-79
2021/12/29 22:38:55;;;;;;;1.15;0.50;;;;;;;;;;8266993;28;20068;-79
2021/12/29 22:42:56;;;;;;;2.67;0.60;;;;;;;;;;8269439;28;20025;-79
2021/12/29 22:46:56;;;;;;;0.40;0.40;;;;;;;;;;8268805;28;20045;-79
2021/12/29 22:50:59;;;;;;;0.40;0.40;;;;;;;;;;8270261;28;20112;-78
2021/12/29 22:54:59;;;;;;;0.60;0.60;;;;;;;;;;8267414;28;20616;-79
2021/12/29 22:58:59;;;;;;;1.70;0.43;;;;;;;;;;8269638;28;20136;-79
2021/12/29 23:03:01;;;;;;;0.63;0.57;;;;;;;;;;8267136;28;20096;-79
2021/12/29 23:07:01;;;;;;;0.90;0.50;;;;;;;;;;8268555;28;20034;-79
2021/12/29 23:11:02;;;;;;;1.02;0.57;;;;;;;;;;8269840;28;20040;-79
2021/12/29 23:15:03;;;;;;;1.50;0.40;;;;;;;;;;8280053;28;20026;-79
2021/12/29 23:19:06;;;;;;;1.73;0.50;;;;;;;;;;8273674;28;20044;-80
2021/12/29 23:23:11;;;;;;;2.70;0.50;;;;;;;;;;8290863;28;20038;-79
2021/12/29 23:31:31;;;;;;;1.38;0.88;;;;;;;;;;8274493;28;20053;-79
2021/12/29 23:35:32;;;;;;;2.17;0.55;;;;;;;;;;8273351;28;20021;-80
2021/12/29 23:39:32;;;;;;;1.58;0.60;;;;;;;;;;8273889;28;20121;-79
2021/12/29 23:43:33;;;;;;;4.00;0.80;;;;;;;;;;8273067;28;21019;-79
2021/12/29 23:47:34;;;;;;;3.28;1.05;;;;;;;;;;8273576;28;20132;-79
2021/12/29 23:51:34;;;;;;;4.05;0.90;;;;;;;;;;8275274;28;20754;-80
2021/12/29 23:55:35;;;;;;;3.38;0.82;;;;;;;;;;8273514;28;20522;-79
2021/12/29 23:59:35;;;;;;;2.95;1.00;;;;;;;;;;8274167;28;20091;-79
